Time;durP1;ratioP1;P1;durP2;ratioP2;P2;SDS_P1;SDS_P2;PMS_P1;PMS_P2;Temp;Humidity;BMP_temperature;BMP_pressure;BME280_temperature;BME280_humidity;BME280_pressure;Samples;Min_cycle;Max_cycle;Signal;HPM_P1;HPM_P2
2022/06/25 00:01:32;;;;;;;1.50;1.40;;;23.20;61.70;;;;;;4791924;29;43471;-60
2022/06/25 00:04:00;;;;;;;1.13;1.13;;;23.20;61.70;;;;;;4760434;29;43522;-60
2022/06/25 00:06:28;;;;;;;1.40;1.40;;;23.20;61.70;;;;;;4793010;29;44731;-60
2022/06/25 00:08:55;;;;;;;1.30;1.30;;;23.20;61.70;;;;;;4792935;29;43457;-60
2022/06/25 00:14:11;;;;;;;1.20;1.20;;;23.20;61.70;;;;;;4796425;29;43460;-60
2022/06/25 00:16:38;;;;;;;1.23;1.23;;;23.20;61.70;;;;;;4795609;29;44769;-60
2022/06/25 00:19:06;;;;;;;1.40;1.30;;;23.10;61.70;;;;;;4796883;29;43802;-60
2022/06/25 00:21:33;;;;;;;1.40;1.38;;;23.20;61.70;;;;;;4795812;29;43473;-60
2022/06/25 00:24:01;;;;;;;1.27;1.27;;;23.20;61.70;;;;;;4795968;29;43498;-60
2022/06/25 00:26:28;;;;;;;1.20;1.20;;;23.10;61.70;;;;;;4790663;29;44781;-60
2022/06/25 00:28:56;;;;;;;1.30;1.30;;;23.20;61.80;;;;;;4793032;29;43748;-60
2022/06/25 00:31:24;;;;;;;1.42;1.30;;;23.10;61.70;;;;;;4795051;29;43486;-60
2022/06/25 00:33:51;;;;;;;1.70;1.30;;;23.10;61.70;;;;;;4779968;29;43665;-60
2022/06/25 00:36:19;;;;;;;1.50;1.40;;;23.10;61.70;;;;;;4796277;29;45036;-60
2022/06/25 00:38:46;;;;;;;1.20;1.20;;;23.10;61.70;;;;;;4795238;29;43687;-60
2022/06/25 00:41:15;;;;;;;1.60;1.50;;;23.10;61.70;;;;;;4795769;29;43427;-60
2022/06/25 00:43:42;;;;;;;1.45;1.42;;;23.10;61.70;;;;;;4795521;29;43428;-60
2022/06/25 00:46:10;;;;;;;1.40;1.30;;;23.10;61.70;;;;;;4778933;29;43811;-60
2022/06/25 00:48:37;;;;;;;1.50;1.40;;;23.10;61.70;;;;;;4780141;29;43492;-60
2022/06/25 00:51:12;;;;;;;1.27;1.27;;;23.10;61.70;;;;;;4801326;29;43554;-60
2022/06/25 00:53:42;;;;;;;1.50;1.40;;;23.10;61.70;;;;;;4795640;29;43445;-60
2022/06/25 00:56:13;;;;;;;1.30;1.30;;;23.10;61.70;;;;;;4779005;29;44771;-60
2022/06/25 00:58:43;;;;;;;1.25;1.25;;;23.10;61.70;;;;;;4795054;29;43714;-60
2022/06/25 01:01:13;;;;;;;1.50;1.40;;;23.00;61.70;;;;;;4795916;29;43421;-60
2022/06/25 01:03:41;;;;;;;1.40;1.30;;;23.00;61.70;;;;;;4795816;29;43448;-60
2022/06/25 01:06:09;;;;;;;1.20;1.20;;;23.00;61.70;;;;;;4779391;29;43866;-60
2022/06/25 01:08:36;;;;;;;1.27;1.27;;;23.10;61.70;;;;;;4795958;29;44148;-60
2022/06/25 01:11:04;;;;;;;1.30;1.30;;;23.00;61.70;;;;;;4795676;29;43520;-60
2022/06/25 01:13:32;;;;;;;1.35;1.30;;;23.00;61.70;;;;;;4794528;29;43444;-60
2022/06/25 01:16:00;;;;;;;1.40;1.30;;;23.00;61.70;;;;;;4795810;29;44043;-60
2022/06/25 01:18:27;;;;;;;1.38;1.27;;;23.00;61.60;;;;;;4779676;29;43470;-60
2022/06/25 01:20:55;;;;;;;1.20;1.20;;;23.00;61.70;;;;;;4794845;29;43425;-60
2022/06/25 01:23:23;;;;;;;1.40;1.40;;;23.00;61.70;;;;;;4779268;29;43491;-60
2022/06/25 01:25:50;;;;;;;1.60;1.50;;;23.00;61.70;;;;;;4778875;29;44041;-60
2022/06/25 01:28:18;;;;;;;1.40;1.30;;;23.00;61.70;;;;;;4778717;29;44283;-60
2022/06/25 01:30:45;;;;;;;1.40;1.40;;;23.00;61.70;;;;;;4795176;29;43450;-60
2022/06/25 01:33:13;;;;;;;1.60;1.50;;;22.90;61.70;;;;;;4795142;29;43431;-60
2022/06/25 01:35:41;;;;;;;1.25;1.25;;;22.90;61.70;;;;;;4794959;29;44808;-60
2022/06/25 01:38:09;;;;;;;1.67;1.30;;;22.90;61.70;;;;;;4796241;29;43701;-60
2022/06/25 01:40:37;;;;;;;1.52;1.30;;;22.90;61.70;;;;;;4794118;29;43477;-59
2022/06/25 01:43:05;;;;;;;1.45;1.38;;;22.90;61.70;;;;;;4778453;29;43540;-60
2022/06/25 01:45:36;;;;;;;1.30;1.30;;;22.90;61.70;;;;;;4794335;29;44090;-60
2022/06/25 01:48:07;;;;;;;1.25;1.15;;;22.90;61.70;;;;;;4795045;29;43455;-60
2022/06/25 01:50:35;;;;;;;1.30;1.30;;;22.90;61.70;;;;;;4784543;29;43527;-60
2022/06/25 01:53:05;;;;;;;1.40;1.30;;;22.90;61.70;;;;;;4783964;29;43456;-60
2022/06/25 01:55:32;;;;;;;1.45;1.40;;;22.90;61.70;;;;;;4778051;29;43893;-60
2022/06/25 01:58:01;;;;;;;1.40;1.30;;;22.90;61.70;;;;;;4788809;29;44321;-60
2022/06/25 02:00:31;;;;;;;1.20;1.20;;;22.90;61.70;;;;;;4777859;29;43396;-60
2022/06/25 02:03:07;;;;;;;1.30;1.30;;;22.90;61.70;;;;;;4778491;29;43454;-59
2022/06/25 02:08:22;;;;;;;1.40;1.30;;;22.90;61.80;;;;;;4768248;29;43812;-60
2022/06/25 02:10:50;;;;;;;1.42;1.40;;;22.90;61.70;;;;;;4778596;29;43480;-60
2022/06/25 02:13:18;;;;;;;1.55;1.45;;;22.90;61.70;;;;;;4779479;29;43483;-60
2022/06/25 02:15:46;;;;;;;1.33;1.30;;;22.80;61.70;;;;;;4777302;29;44984;-60
2022/06/25 02:18:14;;;;;;;1.40;1.35;;;22.80;61.70;;;;;;4795260;29;43418;-60
2022/06/25 02:20:42;;;;;;;1.30;1.30;;;22.80;61.70;;;;;;4794360;29;43498;-60
2022/06/25 02:23:11;;;;;;;1.30;1.20;;;22.80;61.70;;;;;;4795101;29;43436;-60
2022/06/25 02:25:39;;;;;;;1.63;1.30;;;22.80;61.70;;;;;;4794314;29;43811;-60
2022/06/25 02:28:14;;;;;;;1.30;1.20;;;22.80;61.70;;;;;;4795083;29;43409;-60
2022/06/25 02:30:43;;;;;;;1.40;1.40;;;22.80;61.70;;;;;;4793536;29;43413;-60
2022/06/25 02:33:12;;;;;;;1.42;1.33;;;22.80;61.70;;;;;;4778751;29;43634;-60
2022/06/25 02:35:44;;;;;;;1.40;1.40;;;22.80;61.70;;;;;;4777661;29;44066;-60
2022/06/25 02:38:15;;;;;;;1.33;1.33;;;22.80;61.70;;;;;;4778145;29;43442;-60
2022/06/25 02:40:47;;;;;;;1.40;1.40;;;22.80;61.70;;;;;;4774779;29;43451;-60
2022/06/25 02:43:15;;;;;;;1.25;1.25;;;22.80;61.70;;;;;;4773122;29;43499;-60
2022/06/25 02:45:47;;;;;;;1.50;1.40;;;22.80;61.70;;;;;;4776721;29;44933;-60
2022/06/25 02:48:15;;;;;;;1.30;1.30;;;22.80;61.70;;;;;;4778549;29;43464;-60
2022/06/25 02:50:43;;;;;;;1.73;1.17;;;22.80;61.70;;;;;;4783660;29;43469;-60
2022/06/25 02:53:13;;;;;;;1.50;1.40;;;22.80;61.70;;;;;;4778387;29;43466;-60
2022/06/25 03:01:17;;;;;;;2.83;1.38;;;22.70;61.60;;;;;;4789197;29;43509;-60
2022/06/25 03:03:45;;;;;;;1.60;1.50;;;22.80;61.70;;;;;;4776847;29;43558;-60
2022/06/25 03:06:13;;;;;;;1.30;1.30;;;22.70;61.70;;;;;;4777773;29;44065;-60
2022/06/25 03:08:41;;;;;;;1.10;1.10;;;22.70;61.70;;;;;;4772634;29;43472;-60
2022/06/25 03:11:08;;;;;;;1.20;1.20;;;22.70;61.70;;;;;;4777712;29;43477;-60
2022/06/25 03:13:38;;;;;;;1.35;1.33;;;22.70;61.80;;;;;;4776762;29;43492;-60
2022/06/25 03:16:08;;;;;;;1.23;1.23;;;22.70;61.80;;;;;;4778376;29;43629;-60
2022/06/25 03:18:37;;;;;;;1.52;1.42;;;22.70;61.70;;;;;;4775758;29;43411;-60
2022/06/25 03:21:39;;;;;;;1.58;1.48;;;22.70;61.70;;;;;;4779953;29;43372;-60
2022/06/25 03:24:08;;;;;;;1.30;1.30;;;22.70;61.80;;;;;;4778420;29;43583;-60
2022/06/25 03:26:36;;;;;;;1.77;1.40;;;22.70;61.80;;;;;;4776701;29;43814;-60
2022/06/25 03:29:04;;;;;;;1.20;1.20;;;22.70;61.80;;;;;;4778048;29;45027;-60
2022/06/25 03:31:35;;;;;;;1.30;1.30;;;22.70;61.80;;;;;;4777259;29;43419;-60
2022/06/25 03:34:22;;;;;;;1.50;1.40;;;22.70;61.80;;;;;;4776759;29;43554;-60
2022/06/25 03:36:51;;;;;;;1.40;1.30;;;22.60;61.70;;;;;;4777739;29;44066;-60
2022/06/25 03:39:19;;;;;;;1.23;1.23;;;22.60;61.70;;;;;;4777479;29;44111;-60
2022/06/25 03:41:47;;;;;;;1.25;1.25;;;22.60;61.70;;;;;;4777448;29;43461;-60
2022/06/25 03:44:26;;;;;;;1.40;1.40;;;22.60;61.80;;;;;;4765506;29;43472;-60
2022/06/25 03:47:01;;;;;;;1.23;1.20;;;22.60;61.70;;;;;;4779873;29;44225;-60
2022/06/25 03:49:31;;;;;;;1.42;1.33;;;22.60;61.70;;;;;;4780822;29;43481;-60
2022/06/25 03:52:01;;;;;;;1.50;1.40;;;22.60;61.80;;;;;;4792884;29;43457;-60
2022/06/25 03:54:29;;;;;;;1.45;1.40;;;22.60;61.80;;;;;;4779717;29;43578;-60
2022/06/25 03:56:57;;;;;;;1.20;1.20;;;22.60;61.80;;;;;;4780123;29;43800;-60
2022/06/25 03:59:38;;;;;;;1.70;1.60;;;22.60;61.80;;;;;;4779077;29;43435;-60
2022/06/25 04:02:17;;;;;;;1.23;1.23;;;22.60;62.40;;;;;;4780334;29;43517;-60
2022/06/25 04:05:05;;;;;;;1.20;1.20;;;22.60;61.80;;;;;;4796072;29;43609;-60
2022/06/25 04:07:33;;;;;;;1.48;1.40;;;22.60;61.80;;;;;;4780613;29;43919;-60
2022/06/25 04:10:01;;;;;;;1.20;1.20;;;22.60;61.80;;;;;;4778927;29;43773;-60
2022/06/25 04:12:28;;;;;;;1.27;1.27;;;22.60;61.80;;;;;;4780412;29;43516;-60
2022/06/25 04:14:56;;;;;;;1.35;1.25;;;22.60;61.70;;;;;;4779646;29;43599;-60
2022/06/25 04:17:24;;;;;;;1.65;1.55;;;22.60;62.00;;;;;;4780829;29;44058;-60
2022/06/25 04:19:51;;;;;;;1.33;1.23;;;22.50;61.70;;;;;;4780088;29;44132;-60
2022/06/25 04:22:19;;;;;;;1.30;1.30;;;22.50;61.70;;;;;;4779609;29;43441;-60
2022/06/25 04:24:47;;;;;;;1.20;1.13;;;22.50;61.70;;;;;;4779976;29;43634;-60
2022/06/25 04:29:03;;;;;;;1.40;1.40;;;22.50;61.70;;;;;;4781311;29;44130;-60
2022/06/25 04:30:06;;;;;;;1.30;1.20;;;22.50;61.70;;;;;;4779441;29;44130;-60
2022/06/25 04:32:34;;;;;;;1.23;1.23;;;22.50;61.70;;;;;;4779768;29;43464;-60
2022/06/25 04:35:14;;;;;;;1.40;1.30;;;22.50;61.70;;;;;;4780537;29;43450;-60
2022/06/25 04:37:44;;;;;;;1.20;1.20;;;22.50;61.80;;;;;;4779234;29;45029;-60
2022/06/25 04:40:14;;;;;;;1.30;1.27;;;22.50;61.80;;;;;;4779999;29;43531;-60
2022/06/25 04:42:46;;;;;;;1.20;1.10;;;22.50;61.80;;;;;;4780857;29;43548;-60
2022/06/25 04:45:14;;;;;;;1.30;1.30;;;22.50;61.80;;;;;;4779134;29;43457;-60
2022/06/25 04:48:05;;;;;;;1.42;1.40;;;22.50;61.80;;;;;;4788415;29;44109;-60
2022/06/25 04:51:05;;;;;;;1.52;1.42;;;22.50;61.80;;;;;;4760105;29;43529;-60
2022/06/25 04:53:33;;;;;;;1.25;1.25;;;22.40;61.80;;;;;;4779179;29;43547;-60
2022/06/25 04:56:01;;;;;;;1.23;1.23;;;22.40;61.80;;;;;;4778409;29;43501;-60
2022/06/25 04:58:29;;;;;;;1.30;1.30;;;22.40;61.80;;;;;;4775457;29;43600;-60
2022/06/25 05:01:23;;;;;;;1.55;1.45;;;22.40;61.80;;;;;;4773230;29;43751;-60
2022/06/25 05:03:51;;;;;;;1.45;1.35;;;22.40;61.80;;;;;;4779898;29;43407;-60
2022/06/25 05:06:18;;;;;;;1.13;1.13;;;22.40;61.80;;;;;;4779233;29;43516;-60
2022/06/25 05:08:46;;;;;;;1.42;1.40;;;22.40;61.80;;;;;;4784007;29;45190;-60
2022/06/25 05:11:13;;;;;;;1.10;1.08;;;22.40;61.80;;;;;;4778892;29;43716;-60
2022/06/25 05:13:41;;;;;;;1.20;1.20;;;22.40;61.80;;;;;;4764395;29;43556;-60
2022/06/25 05:16:08;;;;;;;1.10;1.10;;;22.40;61.80;;;;;;4796619;29;43438;-60
2022/06/25 05:18:36;;;;;;;1.20;1.20;;;22.40;61.80;;;;;;4787173;29;45215;-60
2022/06/25 05:21:04;;;;;;;1.10;1.10;;;22.40;61.80;;;;;;4779101;29;43947;-60
2022/06/25 05:23:31;;;;;;;1.20;1.20;;;22.40;61.80;;;;;;4778943;29;43481;-60
2022/06/25 05:25:59;;;;;;;1.40;1.30;;;22.40;61.80;;;;;;4762509;29;43642;-60
2022/06/25 05:28:26;;;;;;;1.05;1.05;;;22.40;61.80;;;;;;4787904;29;44979;-60
2022/06/25 05:30:54;;;;;;;1.00;1.00;;;22.40;61.80;;;;;;4795458;29;43462;-60
2022/06/25 05:33:22;;;;;;;1.58;1.20;;;22.40;61.80;;;;;;4778466;29;43508;-60
2022/06/25 05:35:49;;;;;;;1.10;1.10;;;22.40;61.80;;;;;;4779993;29;43521;-60
2022/06/25 05:38:17;;;;;;;1.10;0.98;;;22.40;61.80;;;;;;4787662;29;45144;-60
2022/06/25 05:40:44;;;;;;;1.10;1.10;;;22.40;61.80;;;;;;4794256;29;45141;-60
2022/06/25 05:43:12;;;;;;;1.23;1.23;;;22.40;61.80;;;;;;4795501;29;43468;-60
2022/06/25 05:45:39;;;;;;;1.20;1.13;;;22.40;61.90;;;;;;4795379;29;43488;-60
2022/06/25 05:48:07;;;;;;;1.30;1.30;;;22.40;61.90;;;;;;4789028;29;44711;-60
2022/06/25 05:50:35;;;;;;;1.10;1.10;;;22.40;61.90;;;;;;4801265;29;43415;-60
2022/06/25 05:53:03;;;;;;;1.10;1.10;;;22.40;62.00;;;;;;4800974;29;43412;-59
2022/06/25 05:55:31;;;;;;;1.52;1.42;;;22.40;62.00;;;;;;4794888;29;43459;-60
2022/06/25 05:57:59;;;;;;;1.10;1.10;;;22.40;62.00;;;;;;4794696;29;44707;-60
2022/06/25 06:00:26;;;;;;;1.20;1.20;;;22.40;61.90;;;;;;4794067;29;43826;-60
2022/06/25 06:02:54;;;;;;;1.02;1.00;;;22.40;61.90;;;;;;4795442;29;43564;-60
2022/06/25 06:05:21;;;;;;;1.10;1.10;;;22.40;62.00;;;;;;4780037;29;43499;-60
2022/06/25 06:07:49;;;;;;;1.10;1.10;;;22.40;62.00;;;;;;4794085;29;43807;-60
2022/06/25 06:10:17;;;;;;;1.20;1.20;;;22.30;61.90;;;;;;4794430;29;43696;-60
2022/06/25 06:12:45;;;;;;;1.02;1.02;;;22.30;62.00;;;;;;4778489;29;43481;-60
2022/06/25 06:15:12;;;;;;;0.95;0.95;;;22.30;62.00;;;;;;4795395;29;43568;-60
2022/06/25 06:17:40;;;;;;;0.90;0.90;;;22.30;62.00;;;;;;4787392;29;43845;-60
2022/06/25 06:20:08;;;;;;;1.10;1.10;;;22.30;62.00;;;;;;4794088;29;43414;-60
2022/06/25 06:22:35;;;;;;;1.25;1.25;;;22.40;62.00;;;;;;4793904;29;43453;-60
2022/06/25 06:25:03;;;;;;;1.02;1.02;;;22.40;62.00;;;;;;4795813;29;43537;-60
2022/06/25 06:27:31;;;;;;;0.90;0.90;;;22.40;62.00;;;;;;4778129;29;43820;-60
2022/06/25 06:29:59;;;;;;;1.00;1.00;;;22.40;61.90;;;;;;4794353;29;43709;-60
2022/06/25 06:32:26;;;;;;;1.17;1.02;;;22.40;61.90;;;;;;4794149;29;43442;-60
2022/06/25 06:34:54;;;;;;;1.00;1.00;;;22.40;61.90;;;;;;4795750;29;43435;-60
2022/06/25 06:37:21;;;;;;;1.30;1.20;;;22.40;62.00;;;;;;4794073;29;43746;-60
2022/06/25 06:39:49;;;;;;;1.10;1.10;;;22.40;61.90;;;;;;4794485;29;43415;-60
2022/06/25 06:42:16;;;;;;;0.93;0.93;;;22.40;61.90;;;;;;4793313;29;43436;-60
2022/06/25 06:44:44;;;;;;;1.10;1.10;;;22.40;61.90;;;;;;4794536;29;43428;-60
2022/06/25 06:47:11;;;;;;;0.90;0.90;;;22.40;61.90;;;;;;4794303;29;44709;-60
2022/06/25 06:49:39;;;;;;;1.02;1.02;;;22.40;61.90;;;;;;4793253;29;43460;-60
2022/06/25 06:52:07;;;;;;;0.93;0.93;;;22.50;62.00;;;;;;4799647;29;43458;-60
2022/06/25 06:54:34;;;;;;;1.00;1.00;;;22.50;62.00;;;;;;4793644;29;43464;-60
2022/06/25 06:57:02;;;;;;;1.20;1.20;;;22.50;62.00;;;;;;4793909;29;43769;-60
2022/06/25 06:59:29;;;;;;;1.27;1.27;;;22.50;61.90;;;;;;4789811;29;44050;-60
2022/06/25 07:01:58;;;;;;;1.02;1.02;;;22.50;62.00;;;;;;4794307;29;43431;-60
2022/06/25 07:04:25;;;;;;;0.90;0.90;;;22.50;62.00;;;;;;4793872;29;43536;-60
2022/06/25 07:06:53;;;;;;;0.90;0.90;;;22.50;61.90;;;;;;4794530;29;45307;-60
2022/06/25 07:09:20;;;;;;;1.02;0.93;;;22.50;61.90;;;;;;4777889;29;43740;-60
2022/06/25 07:11:48;;;;;;;1.10;1.08;;;22.50;61.90;;;;;;4793333;29;43483;-60
2022/06/25 07:14:16;;;;;;;1.30;1.30;;;22.50;62.00;;;;;;4794170;29;43486;-60
2022/06/25 07:16:43;;;;;;;1.20;1.20;;;22.50;62.00;;;;;;4793055;29;44681;-60
2022/06/25 07:19:11;;;;;;;1.10;1.10;;;22.50;62.20;;;;;;4794264;29;44209;-60
2022/06/25 07:21:38;;;;;;;1.02;1.02;;;22.50;62.20;;;;;;4799718;29;43471;-60
2022/06/25 07:24:06;;;;;;;1.10;1.05;;;22.50;62.30;;;;;;4784810;29;43515;-60
2022/06/25 07:26:35;;;;;;;1.13;1.13;;;22.50;62.20;;;;;;4799776;29;43879;-60
2022/06/25 07:29:03;;;;;;;1.08;1.08;;;22.50;62.20;;;;;;4800300;29;44015;-60
2022/06/25 07:31:30;;;;;;;1.23;1.23;;;22.50;62.10;;;;;;4799278;29;43463;-60
2022/06/25 07:33:58;;;;;;;1.42;1.30;;;22.50;62.10;;;;;;4801143;29;43633;-60
2022/06/25 07:36:26;;;;;;;1.08;1.08;;;22.50;62.10;;;;;;4799728;29;44719;-60
2022/06/25 07:38:53;;;;;;;1.35;1.35;;;22.50;62.20;;;;;;4799556;29;43741;-60
2022/06/25 07:41:21;;;;;;;0.90;0.90;;;22.50;62.30;;;;;;4798964;29;43512;-60
2022/06/25 07:43:49;;;;;;;0.85;0.85;;;22.50;62.10;;;;;;4799755;29;43995;-60
2022/06/25 07:46:17;;;;;;;1.48;1.38;;;22.50;61.90;;;;;;4798109;29;44694;-60
2022/06/25 07:48:44;;;;;;;1.30;1.30;;;22.50;62.30;;;;;;4802546;29;43457;-60
2022/06/25 07:53:58;;;;;;;1.00;1.00;;;22.50;61.80;;;;;;4806114;29;43516;-60
2022/06/25 07:56:29;;;;;;;1.55;1.30;;;22.60;62.30;;;;;;4804199;29;44659;-60
2022/06/25 07:59:09;;;;;;;1.65;1.15;;;22.60;62.40;;;;;;4788017;29;43531;-60
2022/06/25 08:01:37;;;;;;;1.40;1.30;;;22.60;62.60;;;;;;4768984;29;43506;-60
2022/06/25 08:04:05;;;;;;;2.38;1.50;;;22.60;62.70;;;;;;4810130;29;43513;-60
2022/06/25 08:06:34;;;;;;;1.60;1.38;;;22.60;62.70;;;;;;4786059;29;44751;-60
2022/06/25 08:09:03;;;;;;;2.45;1.45;;;22.70;62.50;;;;;;4789864;29;43468;-60
2022/06/25 08:11:30;;;;;;;1.17;1.17;;;22.70;62.70;;;;;;4804212;29;43527;-60
2022/06/25 08:13:58;;;;;;;1.58;1.23;;;22.70;62.20;;;;;;4808233;29;43661;-60
2022/06/25 08:16:26;;;;;;;1.30;1.20;;;22.60;62.30;;;;;;4804162;29;44169;-60
2022/06/25 08:18:54;;;;;;;1.88;1.20;;;22.60;62.40;;;;;;4808002;29;43509;-60
2022/06/25 08:21:22;;;;;;;1.95;1.38;;;22.70;62.20;;;;;;4802826;29;43472;-60
2022/06/25 08:23:50;;;;;;;1.30;1.20;;;22.70;62.30;;;;;;4803958;29;43484;-60
2022/06/25 08:26:17;;;;;;;1.52;1.30;;;22.70;62.30;;;;;;4802776;29;44049;-60
2022/06/25 08:28:45;;;;;;;1.50;1.20;;;22.70;62.30;;;;;;4802905;29;43463;-60
2022/06/25 08:31:12;;;;;;;1.30;1.13;;;22.70;62.40;;;;;;4801502;29;43496;-60
2022/06/25 08:33:40;;;;;;;1.67;1.23;;;22.70;62.20;;;;;;4795168;29;43563;-60
2022/06/25 08:36:08;;;;;;;1.45;1.35;;;22.70;62.20;;;;;;4801776;29;44727;-60
2022/06/25 08:38:36;;;;;;;1.45;1.35;;;22.70;62.10;;;;;;4785279;29;43472;-60
2022/06/25 08:41:03;;;;;;;1.33;1.20;;;22.70;62.10;;;;;;4804916;29;43487;-61
2022/06/25 08:43:33;;;;;;;1.45;1.35;;;22.70;62.10;;;;;;4787438;29;43540;-61
2022/06/25 08:46:02;;;;;;;1.20;1.20;;;22.80;62.10;;;;;;4805418;29;44035;-61
2022/06/25 08:48:31;;;;;;;1.52;1.42;;;22.80;62.30;;;;;;4802749;29;43534;-61
2022/06/25 08:51:01;;;;;;;1.20;1.20;;;22.80;62.20;;;;;;4803498;29;43465;-61
2022/06/25 08:53:32;;;;;;;1.37;1.27;;;22.80;62.10;;;;;;4795693;29;43487;-60
2022/06/25 08:56:01;;;;;;;1.63;1.25;;;22.80;62.00;;;;;;4801315;29;44058;-60
2022/06/25 08:58:29;;;;;;;1.50;1.40;;;22.80;62.10;;;;;;4795377;29;43436;-61
2022/06/25 09:00:56;;;;;;;2.65;1.45;;;22.90;62.10;;;;;;4800901;29;43567;-61
2022/06/25 09:03:25;;;;;;;1.33;1.23;;;22.90;62.00;;;;;;4803303;29;44237;-61
2022/06/25 09:05:53;;;;;;;1.33;1.30;;;22.90;62.00;;;;;;4802339;29;44699;-62
2022/06/25 09:08:20;;;;;;;1.98;1.25;;;22.90;62.00;;;;;;4802208;29;43939;-58
2022/06/25 09:10:54;;;;;;;1.58;1.30;;;22.90;62.90;;;;;;4801597;29;43489;-61
2022/06/25 09:13:25;;;;;;;1.42;1.33;;;22.90;62.20;;;;;;4794033;29;43509;-61
2022/06/25 09:15:53;;;;;;;1.23;1.23;;;23.00;62.10;;;;;;4803283;29;44968;-61
2022/06/25 09:18:26;;;;;;;1.40;1.30;;;23.00;62.10;;;;;;4798935;29;43492;-61
2022/06/25 09:21:10;;;;;;;1.50;1.40;;;23.00;62.00;;;;;;4802387;29;43485;-61
2022/06/25 09:24:00;;;;;;;1.40;1.35;;;23.00;62.10;;;;;;4785292;29;43779;-61
2022/06/25 09:26:29;;;;;;;1.77;1.30;;;23.00;62.10;;;;;;4798196;29;43879;-61
2022/06/25 09:29:01;;;;;;;1.60;1.13;;;23.00;62.10;;;;;;4798378;29;43475;-61
2022/06/25 09:31:36;;;;;;;1.13;1.05;;;23.00;62.30;;;;;;4798756;29;43430;-61
2022/06/25 09:34:06;;;;;;;1.42;1.30;;;23.00;62.20;;;;;;4801399;29;43567;-61
2022/06/25 09:36:34;;;;;;;1.42;1.20;;;23.00;62.20;;;;;;4798315;29;44654;-61
2022/06/25 09:39:02;;;;;;;1.15;1.13;;;23.10;62.30;;;;;;4800721;29;43539;-60
2022/06/25 09:41:53;;;;;;;2.10;1.63;;;23.10;62.30;;;;;;4801929;29;43458;-61
2022/06/25 09:44:21;;;;;;;2.08;1.50;;;23.10;62.20;;;;;;4798857;29;43655;-61
2022/06/25 09:46:56;;;;;;;1.55;1.20;;;23.10;62.20;;;;;;4801195;29;44269;-61
2022/06/25 09:49:27;;;;;;;1.60;1.20;;;23.10;62.10;;;;;;4785873;29;43515;-61
2022/06/25 09:52:02;;;;;;;1.35;1.20;;;23.10;62.20;;;;;;4798836;29;43484;-61
2022/06/25 09:54:31;;;;;;;1.38;1.10;;;23.10;62.30;;;;;;4781334;29;43527;-61
2022/06/25 09:57:02;;;;;;;1.42;1.33;;;23.10;62.20;;;;;;4798562;29;44076;-62
2022/06/25 09:59:31;;;;;;;1.65;1.20;;;23.10;62.20;;;;;;4797261;29;43619;-61
2022/06/25 10:02:03;;;;;;;1.52;1.38;;;23.10;62.20;;;;;;4799387;29;43493;-61
2022/06/25 10:04:31;;;;;;;1.13;1.13;;;23.10;62.20;;;;;;4798231;29;43523;-61
2022/06/25 10:07:02;;;;;;;1.25;1.25;;;23.10;62.20;;;;;;4794077;29;45003;-61
2022/06/25 10:09:32;;;;;;;1.38;1.27;;;23.10;62.10;;;;;;4796281;29;44042;-61
2022/06/25 10:12:05;;;;;;;1.20;1.20;;;23.20;62.20;;;;;;4799153;29;43568;-61
2022/06/25 10:14:36;;;;;;;1.80;1.42;;;23.20;62.20;;;;;;4800202;29;43557;-61
2022/06/25 10:17:04;;;;;;;1.77;1.35;;;23.20;61.90;;;;;;4798767;29;44993;-61
2022/06/25 10:19:32;;;;;;;1.02;1.02;;;23.20;62.10;;;;;;4802447;29;43550;-61
2022/06/25 10:22:00;;;;;;;1.48;1.30;;;23.20;62.00;;;;;;4800597;29;43470;-61
2022/06/25 10:24:28;;;;;;;1.20;1.20;;;23.20;62.00;;;;;;4800513;29;43525;-61
2022/06/25 10:26:56;;;;;;;1.88;1.40;;;23.20;62.00;;;;;;4798733;29;43824;-61
2022/06/25 10:29:25;;;;;;;2.35;1.50;;;23.20;62.00;;;;;;4795183;29;43482;-61
2022/06/25 10:32:19;;;;;;;1.10;1.10;;;23.20;61.90;;;;;;4801595;29;43552;-62
2022/06/25 10:34:58;;;;;;;1.15;1.08;;;23.20;61.90;;;;;;4795593;29;46420;-61
2022/06/25 10:37:25;;;;;;;1.10;1.10;;;23.30;61.90;;;;;;4797917;29;43810;-62
2022/06/25 10:39:56;;;;;;;1.10;1.00;;;23.30;61.80;;;;;;4808095;29;43631;-60
2022/06/25 10:45:14;;;;;;;1.97;1.20;;;23.30;62.00;;;;;;4804319;29;43535;-60
2022/06/25 10:47:46;;;;;;;1.20;1.20;;;23.30;62.00;;;;;;4800972;29;43807;-61
2022/06/25 10:50:23;;;;;;;1.20;1.20;;;23.30;62.00;;;;;;4801325;29;43594;-61
2022/06/25 10:53:03;;;;;;;1.08;1.08;;;23.30;62.00;;;;;;4802460;29;44042;-61
2022/06/25 10:55:49;;;;;;;1.50;1.30;;;23.40;62.10;;;;;;4798533;29;43482;-60
2022/06/25 10:58:25;;;;;;;1.10;1.10;;;23.40;62.10;;;;;;4798859;29;44948;-62
2022/06/25 11:01:19;;;;;;;1.20;1.20;;;23.30;62.00;;;;;;4797453;29;43721;-61
2022/06/25 11:03:52;;;;;;;1.33;1.23;;;23.40;62.00;;;;;;4790356;29;43518;-60
2022/06/25 11:06:29;;;;;;;1.10;1.10;;;23.40;62.00;;;;;;4798418;29;43868;-62
2022/06/25 11:09:13;;;;;;;0.95;0.95;;;23.40;62.30;;;;;;4785625;29;45817;-61
2022/06/25 11:11:45;;;;;;;0.77;0.77;;;23.40;61.90;;;;;;4795592;29;43561;-61
2022/06/25 11:14:22;;;;;;;1.30;1.20;;;23.50;61.90;;;;;;4802988;29;43609;-61
2022/06/25 11:16:51;;;;;;;1.10;1.00;;;23.40;61.90;;;;;;4796331;29;43467;-61
2022/06/25 11:19:21;;;;;;;0.93;0.90;;;23.50;61.90;;;;;;4805729;29;44094;-61
2022/06/25 11:21:49;;;;;;;1.30;1.20;;;23.50;61.80;;;;;;4802548;29;43978;-61
2022/06/25 11:24:26;;;;;;;1.00;1.00;;;23.50;61.90;;;;;;4798515;29;43585;-61
2022/06/25 11:29:47;;;;;;;1.13;1.10;;;23.50;61.90;;;;;;4793587;29;43784;-61
2022/06/25 11:32:19;;;;;;;1.00;1.00;;;23.50;61.90;;;;;;4793368;29;43789;-61
2022/06/25 11:34:55;;;;;;;1.05;0.95;;;23.50;61.90;;;;;;4793410;29;43494;-61
2022/06/25 11:37:23;;;;;;;1.30;1.20;;;23.50;61.90;;;;;;4794166;29;43500;-61
2022/06/25 11:39:51;;;;;;;1.33;1.20;;;23.50;61.90;;;;;;4793657;29;43863;-61
2022/06/25 11:42:19;;;;;;;1.05;1.05;;;23.50;62.00;;;;;;4793196;29;43484;-61
2022/06/25 11:44:56;;;;;;;1.05;1.00;;;23.50;62.00;;;;;;4793613;29;43602;-61
2022/06/25 11:47:32;;;;;;;1.15;1.10;;;23.40;61.90;;;;;;4791786;29;43491;-61
2022/06/25 11:50:10;;;;;;;1.33;1.23;;;23.40;61.90;;;;;;4788369;29;43920;-61
2022/06/25 11:52:43;;;;;;;1.00;1.00;;;23.40;61.90;;;;;;4800466;29;43415;-61
2022/06/25 11:55:11;;;;;;;1.73;1.35;;;23.40;62.00;;;;;;4793693;29;43494;-61
2022/06/25 11:57:42;;;;;;;1.30;1.20;;;23.40;62.00;;;;;;4791691;29;43543;-61
2022/06/25 12:00:13;;;;;;;1.42;1.33;;;23.40;62.00;;;;;;4792197;29;43802;-61
2022/06/25 12:02:42;;;;;;;1.13;1.02;;;23.40;62.00;;;;;;4792910;29;43519;-61
2022/06/25 12:05:11;;;;;;;1.20;1.10;;;23.40;62.10;;;;;;4790781;29;43608;-61
2022/06/25 12:07:43;;;;;;;1.13;1.10;;;23.40;62.10;;;;;;4794308;29;43466;-61
2022/06/25 12:10:13;;;;;;;1.00;1.00;;;23.50;62.10;;;;;;4802125;29;45004;-61
2022/06/25 12:12:41;;;;;;;1.00;1.00;;;23.50;62.10;;;;;;4793823;29;43530;-61
2022/06/25 12:15:11;;;;;;;1.52;1.40;;;23.50;62.10;;;;;;4808813;29;43857;-61
2022/06/25 12:17:45;;;;;;;1.10;1.10;;;23.60;62.30;;;;;;4797327;29;44135;-61
2022/06/25 12:20:15;;;;;;;1.00;1.00;;;23.60;62.10;;;;;;4810362;29;44964;-61
2022/06/25 12:22:52;;;;;;;1.27;1.27;;;23.60;62.20;;;;;;4804501;29;43502;-62
2022/06/25 12:25:24;;;;;;;1.27;0.98;;;23.70;62.20;;;;;;4806622;29;43451;-62
2022/06/25 12:27:52;;;;;;;1.02;1.02;;;23.60;62.00;;;;;;4806218;29;43523;-62
2022/06/25 12:30:33;;;;;;;1.05;1.00;;;23.60;62.20;;;;;;4809620;29;44991;-62
2022/06/25 12:33:05;;;;;;;1.20;1.10;;;23.70;62.00;;;;;;4802858;29;43749;-61
2022/06/25 12:35:33;;;;;;;1.08;1.08;;;23.70;62.10;;;;;;4807712;29;43452;-62
2022/06/25 12:38:04;;;;;;;1.10;1.00;;;23.70;62.20;;;;;;4806996;29;43504;-62
2022/06/25 12:40:44;;;;;;;1.30;1.20;;;23.60;62.10;;;;;;4804077;29;44037;-62
2022/06/25 12:43:13;;;;;;;2.42;1.25;;;23.60;62.10;;;;;;4806271;29;43961;-61
2022/06/25 12:45:43;;;;;;;1.30;1.20;;;23.60;62.10;;;;;;4787942;29;43482;-61
2022/06/25 12:48:11;;;;;;;1.00;1.00;;;23.60;62.10;;;;;;4803947;29;43497;-62
2022/06/25 12:50:40;;;;;;;1.65;1.05;;;23.60;62.00;;;;;;4806801;29;43816;-61
2022/06/25 12:53:14;;;;;;;1.20;0.77;;;23.60;62.10;;;;;;4798782;29;44076;-61
2022/06/25 12:55:47;;;;;;;1.85;1.20;;;23.70;62.90;;;;;;4794835;29;43473;-61
2022/06/25 12:58:16;;;;;;;1.15;1.05;;;23.70;62.30;;;;;;4807242;29;43615;-61
2022/06/25 13:00:46;;;;;;;3.28;1.20;;;23.70;62.30;;;;;;4780078;29;43802;-61
2022/06/25 13:03:15;;;;;;;1.65;1.55;;;23.70;62.30;;;;;;4804572;29;44317;-61
2022/06/25 13:05:43;;;;;;;2.30;1.10;;;23.70;62.30;;;;;;4808515;29;43455;-61
2022/06/25 13:08:11;;;;;;;1.33;1.23;;;23.70;62.40;;;;;;4806390;29;44109;-61
2022/06/25 13:10:42;;;;;;;1.10;1.00;;;23.70;62.40;;;;;;4802973;29;44782;-61
2022/06/25 13:13:09;;;;;;;2.40;1.50;;;23.80;62.40;;;;;;4796800;29;43718;-61
2022/06/25 13:15:38;;;;;;;1.42;1.20;;;23.70;62.50;;;;;;4805791;29;43590;-61
2022/06/25 13:18:06;;;;;;;2.15;1.20;;;23.80;63.20;;;;;;4801630;29;43586;-61
2022/06/25 13:20:33;;;;;;;1.77;1.20;;;23.80;62.40;;;;;;4804339;29;44069;-61
2022/06/25 13:23:01;;;;;;;0.95;0.93;;;23.80;62.50;;;;;;4806433;29;43811;-61